Wertetabelle Woche

Wetterdaten - Woche 29.10.18 - 04.11.18 (KW44) - Immendingen/Hattingen     744 m über NN
Wetterdaten: Woche 29.10.18 - 04.11.18 (KW44)
Datum Zeit Temp. A. Feuchte A. Luftdruck Regen Taupunkt Windchill
29.10.2018 00:00 1,1 °C 91 % 996,9 hPa 0,7 l/m² -0,1 °C 1,1 °C
29.10.2018 01:00 1,1 °C 92 % 997,3 hPa 0,0 l/m² -0,0 °C 1,1 °C
29.10.2018 02:00 1,2 °C 92 % 997,5 hPa 0,0 l/m² 0,0 °C 1,2 °C
29.10.2018 03:00 1,1 °C 92 % 996,8 hPa 0,0 l/m² -0,1 °C 1,1 °C
29.10.2018 04:00 1,1 °C 92 % 996,4 hPa 0,0 l/m² -0,1 °C 1,1 °C
29.10.2018 05:00 1,1 °C 92 % 995,9 hPa 0,0 l/m² -0,1 °C 1,1 °C
29.10.2018 06:00 1,3 °C 92 % 995,3 hPa 0,0 l/m² 0,1 °C 1,3 °C
29.10.2018 07:00 1,4 °C 92 % 994,8 hPa 0,0 l/m² 0,2 °C 1,4 °C
29.10.2018 08:00 1,6 °C 91 % 994,3 hPa 0,0 l/m² 0,3 °C 1,6 °C
29.10.2018 09:00 1,9 °C 91 % 993,0 hPa 0,0 l/m² 0,6 °C 1,9 °C
29.10.2018 10:00 2,2 °C 91 % 992,6 hPa 0,7 l/m² 0,9 °C 2,2 °C
29.10.2018 11:00 2,7 °C 91 % 992,3 hPa 0,0 l/m² 1,4 °C 2,7 °C
29.10.2018 12:00 2,9 °C 91 % 990,6 hPa 0,0 l/m² 1,6 °C 2,9 °C
29.10.2018 13:00 3,1 °C 91 % 989,6 hPa 0,0 l/m² 1,8 °C 3,1 °C
29.10.2018 14:00 3,7 °C 91 % 988,5 hPa 0,0 l/m² 2,4 °C 3,7 °C
29.10.2018 15:00 4,0 °C 91 % 987,4 hPa 0,0 l/m² 2,6 °C 4,0 °C
29.10.2018 16:00 4,0 °C 91 % 986,9 hPa 0,0 l/m² 2,7 °C 4,0 °C
29.10.2018 17:00 4,1 °C 92 % 986,2 hPa 0,0 l/m² 2,8 °C 4,1 °C
29.10.2018 18:00 4,3 °C 92 % 985,5 hPa 0,0 l/m² 3,1 °C 4,3 °C
29.10.2018 19:00 4,2 °C 92 % 985,7 hPa 4,1 l/m² 3,0 °C 4,2 °C
29.10.2018 20:00 4,3 °C 92 % 982,8 hPa 1,4 l/m² 3,2 °C 4,3 °C
29.10.2018 21:00 4,6 °C 92 % 981,7 hPa 0,0 l/m² 3,4 °C 4,6 °C
29.10.2018 22:00 4,7 °C 92 % 982,8 hPa 0,0 l/m² 3,5 °C 4,7 °C
29.10.2018 23:00 4,7 °C 92 % 981,5 hPa 0,0 l/m² 3,5 °C 4,7 °C
30.10.2018 00:00 5,0 °C 92 % 980,3 hPa 0,0 l/m² 3,8 °C 5,0 °C
30.10.2018 01:00 4,5 °C 92 % 980,5 hPa 0,0 l/m² 3,4 °C 4,5 °C
30.10.2018 02:00 4,4 °C 92 % 981,1 hPa 0,0 l/m² 3,2 °C 4,4 °C
30.10.2018 03:00 4,9 °C 92 % 982,8 hPa 0,0 l/m² 3,7 °C 4,9 °C
30.10.2018 04:00 5,0 °C 92 % 984,3 hPa 0,0 l/m² 3,8 °C 5,0 °C
30.10.2018 05:00 4,1 °C 92 % 985,7 hPa 0,0 l/m² 2,9 °C 4,1 °C
30.10.2018 06:00 3,0 °C 91 % 987,0 hPa 0,0 l/m² 1,7 °C 3,0 °C
30.10.2018 07:00 2,7 °C 91 % 988,3 hPa 0,0 l/m² 1,3 °C 2,7 °C
30.10.2018 08:00 2,8 °C 90 % 990,0 hPa 0,0 l/m² 1,3 °C 2,8 °C
30.10.2018 09:00 2,7 °C 88 % 991,2 hPa 0,0 l/m² 0,8 °C 2,7 °C
30.10.2018 10:00 1,8 °C 88 % 992,3 hPa 0,0 l/m² 0,1 °C 1,8 °C
30.10.2018 11:00 1,6 °C 89 % 993,4 hPa 0,0 l/m² -0,0 °C 1,6 °C
30.10.2018 12:00 1,8 °C 89 % 995,1 hPa 0,7 l/m² 0,2 °C 1,8 °C
30.10.2018 13:00 1,8 °C 89 % 996,8 hPa 0,7 l/m² 0,2 °C 1,8 °C
30.10.2018 14:00 2,9 °C 89 % 997,6 hPa 0,0 l/m² 1,2 °C 2,9 °C
30.10.2018 15:00 4,0 °C 87 % 998,1 hPa 0,0 l/m² 2,1 °C 4,0 °C
30.10.2018 16:00 3,9 °C 88 % 999,3 hPa 0,0 l/m² 2,0 °C 3,9 °C
30.10.2018 17:00 3,0 °C 89 % 1000,0 hPa 0,0 l/m² 1,4 °C 3,0 °C
30.10.2018 18:00 2,0 °C 90 % 1001,1 hPa 0,0 l/m² 0,5 °C 2,0 °C
30.10.2018 19:00 1,4 °C 90 % 1002,2 hPa 0,0 l/m² -0,0 °C 1,4 °C
30.10.2018 20:00 0,7 °C 90 % 1002,7 hPa 0,0 l/m² -0,8 °C 0,7 °C
30.10.2018 21:00 0,3 °C 91 % 1003,4 hPa 0,0 l/m² -1,0 °C 0,3 °C
30.10.2018 22:00 0,4 °C 91 % 1004,3 hPa 0,0 l/m² -0,9 °C 0,4 °C
30.10.2018 23:00 0,0 °C 91 % 1005,1 hPa 0,0 l/m² -1,3 °C 0,0 °C
31.10.2018 00:00 -0,3 °C 91 % 1005,8 hPa 0,0 l/m² -1,6 °C -0,3 °C
31.10.2018 01:00 -0,6 °C 91 % 1006,3 hPa 0,0 l/m² -1,9 °C -0,6 °C
31.10.2018 02:00 -0,6 °C 91 % 1006,8 hPa 0,0 l/m² -1,9 °C -0,6 °C
31.10.2018 03:00 -0,9 °C 91 % 1007,0 hPa 0,0 l/m² -2,2 °C -0,9 °C
31.10.2018 04:00 -0,6 °C 91 % 1006,9 hPa 0,0 l/m² -1,9 °C -0,6 °C
31.10.2018 05:00 -0,1 °C 91 % 1006,9 hPa 0,0 l/m² -1,3 °C -0,1 °C
31.10.2018 06:00 -0,1 °C 91 % 1007,1 hPa 0,0 l/m² -1,3 °C -0,1 °C
31.10.2018 07:00 3,0 °C 88 % 1007,3 hPa 0,0 l/m² 1,2 °C 3,0 °C
31.10.2018 08:00 4,5 °C 80 % 1007,5 hPa 0,0 l/m² 1,2 °C 4,5 °C
31.10.2018 09:00 5,4 °C 77 % 1007,3 hPa 0,0 l/m² 1,7 °C 5,4 °C
31.10.2018 10:00 6,1 °C 76 % 1007,3 hPa 0,0 l/m² 2,2 °C 6,1 °C
31.10.2018 11:00 7,3 °C 75 % 1007,4 hPa 0,0 l/m² 3,1 °C 7,3 °C
31.10.2018 12:00 8,5 °C 72 % 1006,9 hPa 0,0 l/m² 3,8 °C 8,5 °C
31.10.2018 13:00 9,2 °C 72 % 1006,4 hPa 0,0 l/m² 4,3 °C 9,2 °C
31.10.2018 14:00 9,3 °C 70 % 1006,0 hPa 0,0 l/m² 4,1 °C 9,3 °C
31.10.2018 15:00 8,5 °C 71 % 1005,4 hPa 0,0 l/m² 3,5 °C 8,5 °C
31.10.2018 16:00 7,4 °C 76 % 1005,3 hPa 0,0 l/m² 3,5 °C 7,4 °C
31.10.2018 17:00 6,6 °C 79 % 1005,3 hPa 0,0 l/m² 3,3 °C 6,6 °C
31.10.2018 18:00 6,0 °C 82 % 1005,6 hPa 0,0 l/m² 3,2 °C 6,0 °C
31.10.2018 19:00 5,7 °C 83 % 1006,0 hPa 0,0 l/m² 3,0 °C 5,7 °C
31.10.2018 20:00 5,7 °C 83 % 1006,1 hPa 0,0 l/m² 3,1 °C 5,7 °C
31.10.2018 21:00 5,5 °C 83 % 1006,3 hPa 0,0 l/m² 2,9 °C 5,5 °C
31.10.2018 22:00 5,2 °C 84 % 1006,0 hPa 0,0 l/m² 2,8 °C 5,2 °C
31.10.2018 23:00 4,4 °C 86 % 1005,8 hPa 0,0 l/m² 2,2 °C 4,4 °C
01.11.2018 00:00 3,9 °C 87 % 1005,8 hPa 0,0 l/m² 1,9 °C 3,9 °C
01.11.2018 01:00 3,4 °C 88 % 1005,5 hPa 0,0 l/m² 1,6 °C 3,4 °C
01.11.2018 02:00 3,2 °C 88 % 1005,0 hPa 0,0 l/m² 1,4 °C 3,2 °C
01.11.2018 03:00 4,3 °C 88 % 1004,5 hPa 0,0 l/m² 2,4 °C 4,3 °C
01.11.2018 04:00 4,3 °C 85 % 1004,1 hPa 0,0 l/m² 2,1 °C 4,3 °C
01.11.2018 05:00 3,8 °C 88 % 1003,8 hPa 0,0 l/m² 1,9 °C 3,8 °C
01.11.2018 06:00 4,0 °C 88 % 1003,3 hPa 0,0 l/m² 2,2 °C 4,0 °C
01.11.2018 07:00 4,3 °C 87 % 1003,3 hPa 0,0 l/m² 2,3 °C 4,3 °C
01.11.2018 08:00 4,4 °C 88 % 1004,1 hPa 0,0 l/m² 2,6 °C 4,4 °C
01.11.2018 09:00 5,6 °C 88 % 1004,6 hPa 0,0 l/m² 3,7 °C 5,6 °C
01.11.2018 10:00 7,2 °C 86 % 1005,1 hPa 0,0 l/m² 5,0 °C 7,2 °C
01.11.2018 11:00 9,2 °C 81 % 1005,5 hPa 0,0 l/m² 6,0 °C 9,2 °C
01.11.2018 12:00 10,1 °C 78 % 1006,1 hPa 0,0 l/m² 6,6 °C 10,1 °C
01.11.2018 13:00 11,7 °C 73 % 1006,3 hPa 0,0 l/m² 6,9 °C 11,7 °C
01.11.2018 14:00 12,9 °C 68 % 1006,4 hPa 0,0 l/m² 7,1 °C 12,9 °C
01.11.2018 15:00 13,4 °C 65 % 1006,4 hPa 0,0 l/m² 7,0 °C 13,4 °C
01.11.2018 16:00 11,1 °C 72 % 1006,4 hPa 0,0 l/m² 6,2 °C 11,1 °C
01.11.2018 17:00 8,3 °C 78 % 1007,0 hPa 0,0 l/m² 4,7 °C 8,3 °C
01.11.2018 18:00 6,6 °C 80 % 1007,8 hPa 0,0 l/m² 3,4 °C 6,6 °C
01.11.2018 19:00 6,8 °C 84 % 1009,3 hPa 0,0 l/m² 4,3 °C 6,8 °C
01.11.2018 20:00 7,6 °C 83 % 1009,8 hPa 0,0 l/m² 4,9 °C 7,6 °C
01.11.2018 21:00 6,9 °C 82 % 1010,1 hPa 0,0 l/m² 4,0 °C 6,9 °C
01.11.2018 22:00 6,1 °C 83 % 1010,7 hPa 0,0 l/m² 3,4 °C 6,1 °C
01.11.2018 23:00 4,9 °C 86 % 1010,8 hPa 0,0 l/m² 2,7 °C 4,9 °C
02.11.2018 00:00 4,1 °C 88 % 1010,9 hPa 0,0 l/m² 2,2 °C 4,1 °C
02.11.2018 01:00 3,2 °C 89 % 1011,1 hPa 0,0 l/m² 1,5 °C 3,2 °C
02.11.2018 02:00 2,6 °C 89 % 1011,2 hPa 0,0 l/m² 1,0 °C 2,6 °C
02.11.2018 03:00 3,2 °C 90 % 1011,2 hPa 0,0 l/m² 1,8 °C 3,2 °C
02.11.2018 04:00 3,8 °C 90 % 1011,5 hPa 0,0 l/m² 2,3 °C 3,8 °C
02.11.2018 05:00 4,0 °C 90 % 1011,8 hPa 0,0 l/m² 2,5 °C 4,0 °C
02.11.2018 06:00 4,6 °C 91 % 1012,0 hPa 0,0 l/m² 3,1 °C 4,6 °C
02.11.2018 07:00 5,1 °C 91 % 1012,4 hPa 0,0 l/m² 3,7 °C 5,1 °C
02.11.2018 08:00 5,2 °C 91 % 1012,9 hPa 0,0 l/m² 3,8 °C 5,2 °C
02.11.2018 09:00 6,5 °C 90 % 1013,4 hPa 0,0 l/m² 5,0 °C 6,5 °C
02.11.2018 10:00 8,0 °C 90 % 1013,7 hPa 0,0 l/m² 6,5 °C 8,0 °C
02.11.2018 11:00 9,7 °C 87 % 1013,6 hPa 0,0 l/m² 7,6 °C 9,7 °C
02.11.2018 12:00 10,6 °C 80 % 1013,7 hPa 0,0 l/m² 7,3 °C 10,6 °C
02.11.2018 13:00 11,0 °C 77 % 1013,8 hPa 0,0 l/m² 7,1 °C 11,0 °C
02.11.2018 14:00 11,0 °C 76 % 1013,7 hPa 0,0 l/m² 6,9 °C 11,0 °C
02.11.2018 15:00 10,3 °C 78 % 1013,9 hPa 0,0 l/m² 6,5 °C 10,3 °C
02.11.2018 16:00 9,4 °C 80 % 1014,4 hPa 0,0 l/m² 6,0 °C 9,4 °C
02.11.2018 17:00 8,8 °C 80 % 1014,8 hPa 0,0 l/m² 5,5 °C 8,8 °C
02.11.2018 18:00 8,5 °C 80 % 1015,9 hPa 0,0 l/m² 5,2 °C 8,5 °C
02.11.2018 19:00 8,2 °C 81 % 1016,9 hPa 0,0 l/m² 5,1 °C 8,2 °C
02.11.2018 20:00 8,0 °C 82 % 1017,1 hPa 0,0 l/m² 5,1 °C 8,0 °C
02.11.2018 21:00 7,8 °C 83 % 1017,4 hPa 0,0 l/m² 5,1 °C 7,8 °C
02.11.2018 22:00 7,6 °C 83 % 1017,5 hPa 0,0 l/m² 5,0 °C 7,6 °C
02.11.2018 23:00 7,7 °C 83 % 1017,6 hPa 0,0 l/m² 5,0 °C 7,7 °C
03.11.2018 00:00 7,5 °C 85 % 1017,8 hPa 0,0 l/m² 5,1 °C 7,5 °C
03.11.2018 01:00 7,5 °C 85 % 1017,3 hPa 0,0 l/m² 5,1 °C 7,5 °C
03.11.2018 02:00 7,5 °C 85 % 1017,3 hPa 0,0 l/m² 5,2 °C 7,5 °C
03.11.2018 03:00 7,5 °C 85 % 1016,6 hPa 0,0 l/m² 5,2 °C 7,5 °C
03.11.2018 04:00 7,5 °C 85 % 1016,6 hPa 0,0 l/m² 5,1 °C 7,5 °C
03.11.2018 05:00 7,5 °C 85 % 1016,7 hPa 0,0 l/m² 5,1 °C 7,5 °C
03.11.2018 06:00 7,5 °C 84 % 1016,6 hPa 0,0 l/m² 5,0 °C 7,5 °C
03.11.2018 07:00 7,4 °C 82 % 1016,7 hPa 0,0 l/m² 4,6 °C 7,4 °C
03.11.2018 08:00 7,7 °C 81 % 1017,0 hPa 0,0 l/m² 4,7 °C 7,7 °C
03.11.2018 09:00 8,6 °C 79 % 1017,0 hPa 0,0 l/m² 5,1 °C 8,6 °C
03.11.2018 10:00 9,9 °C 76 % 1016,8 hPa 0,0 l/m² 5,9 °C 9,9 °C
03.11.2018 11:00 11,0 °C 74 % 1016,4 hPa 0,0 l/m² 6,5 °C 11,0 °C
03.11.2018 12:00 12,2 °C 69 % 1016,0 hPa 0,0 l/m² 6,6 °C 12,2 °C
03.11.2018 13:00 11,9 °C 73 % 1015,6 hPa 0,0 l/m² 7,1 °C 11,9 °C
03.11.2018 14:00 11,6 °C 75 % 1014,9 hPa 0,0 l/m² 7,3 °C 11,6 °C
03.11.2018 15:00 10,2 °C 79 % 1015,1 hPa 0,0 l/m² 6,7 °C 10,2 °C
03.11.2018 16:00 8,5 °C 84 % 1014,9 hPa 0,0 l/m² 6,0 °C 8,5 °C
03.11.2018 17:00 8,2 °C 86 % 1015,1 hPa 0,0 l/m² 5,9 °C 8,2 °C
03.11.2018 18:00 8,0 °C 86 % 1015,3 hPa 0,0 l/m² 5,8 °C 8,0 °C
03.11.2018 19:00 8,0 °C 86 % 1015,2 hPa 0,0 l/m² 5,8 °C 8,0 °C
03.11.2018 20:00 8,1 °C 87 % 1014,9 hPa 0,0 l/m² 6,0 °C 8,1 °C
03.11.2018 21:00 8,1 °C 88 % 1014,8 hPa 0,0 l/m² 6,2 °C 8,1 °C
03.11.2018 22:00 8,0 °C 88 % 1014,4 hPa 0,0 l/m² 6,2 °C 8,0 °C
03.11.2018 23:00 8,0 °C 89 % 1013,9 hPa 0,0 l/m² 6,3 °C 8,0 °C
04.11.2018 00:00 8,1 °C 89 % 1013,3 hPa 0,0 l/m² 6,3 °C 8,1 °C
04.11.2018 01:00 8,0 °C 89 % 1012,7 hPa 0,0 l/m² 6,3 °C 8,0 °C
04.11.2018 02:00 8,0 °C 89 % 1012,4 hPa 0,0 l/m² 6,3 °C 8,0 °C
04.11.2018 03:00 7,9 °C 89 % 1011,8 hPa 0,0 l/m² 6,2 °C 7,9 °C
04.11.2018 04:00 7,8 °C 89 % 1011,2 hPa 0,0 l/m² 6,2 °C 7,8 °C
04.11.2018 05:00 7,8 °C 89 % 1010,7 hPa 0,0 l/m² 6,0 °C 7,8 °C
04.11.2018 06:00 7,5 °C 89 % 1010,3 hPa 0,0 l/m² 5,8 °C 7,5 °C
04.11.2018 07:00 7,2 °C 90 % 1010,2 hPa 0,0 l/m² 5,6 °C 7,2 °C
04.11.2018 08:00 7,1 °C 90 % 1010,4 hPa 0,0 l/m² 5,5 °C 7,1 °C
Min-Datum _ 31.10.18 01.11.18 30.10.18 - 31.10.18 31.10.18
_ Min-Zeit 03:31 15:20 00:31 - 03:31 03:31
Minimum _ -1,1 °C 63 % 979,4 hPa - -2,4 °C -1,1 °C
Max-Datum _ 01.11.18 29.10.18 03.11.18 29.10.18 02.11.18 01.11.18
_ Max-Zeit 15:10 00:41 00:30 19:11 11:20 15:10
Maximum _ 13,7 °C 92 % 1017,9 hPa 4,1 l/m² 7,9 °C 13,7 °C
Durchschnitt _ 5,5 °C 86 % 1004,8 hPa #8,2 l/m² 3,3 °C 5,5 °C